createdAt,value
2022-08-26T00:01:29.086Z,3.73
2022-08-26T00:03:57.385Z,3.67
2022-08-26T00:06:25.247Z,4.30
2022-08-26T00:08:51.867Z,3.80
2022-08-26T00:11:26.197Z,3.43
2022-08-26T00:13:55.126Z,4.30
2022-08-26T00:16:23.538Z,3.93
2022-08-26T00:18:50.394Z,4.07
2022-08-26T00:21:17.293Z,4.07
2022-08-26T00:23:44.149Z,4.00
2022-08-26T00:26:11.088Z,4.50
2022-08-26T00:28:38.033Z,4.60
2022-08-26T00:31:07.145Z,4.43
2022-08-26T00:33:33.936Z,4.13
2022-08-26T00:36:02.020Z,4.47
2022-08-26T00:38:29.270Z,4.53
2022-08-26T00:40:58.528Z,5.00
2022-08-26T00:43:26.531Z,4.40
2022-08-26T00:46:24.949Z,4.10
2022-08-26T00:49:04.264Z,4.73
2022-08-26T00:51:44.622Z,4.10
2022-08-26T00:54:12.554Z,4.10
2022-08-26T00:56:46.998Z,3.57
2022-08-26T00:59:14.572Z,3.90
2022-08-26T01:01:46.043Z,3.90
2022-08-26T01:04:16.168Z,3.70
2022-08-26T01:06:42.732Z,4.00
2022-08-26T01:09:11.075Z,4.17
2022-08-26T01:11:37.700Z,4.63
2022-08-26T01:14:04.959Z,4.07
2022-08-26T01:16:33.344Z,4.10
2022-08-26T01:19:10.362Z,4.40
2022-08-26T01:21:57.223Z,4.67
2022-08-26T01:24:25.973Z,3.93
2022-08-26T01:26:58.701Z,4.33
2022-08-26T01:29:26.210Z,4.37
2022-08-26T01:31:55.923Z,4.73
2022-08-26T01:34:30.397Z,3.50
2022-08-26T01:37:05.497Z,3.83
2022-08-26T01:39:32.770Z,3.90
2022-08-26T01:42:02.922Z,4.30
2022-08-26T01:44:33.294Z,3.90
2022-08-26T01:47:00.458Z,3.73
2022-08-26T01:49:28.025Z,4.10
2022-08-26T01:51:58.837Z,4.17
2022-08-26T01:54:25.968Z,4.17
2022-08-26T01:56:54.043Z,4.57
2022-08-26T01:59:21.699Z,3.80
2022-08-26T02:01:48.895Z,4.07
2022-08-26T02:04:29.141Z,4.23
2022-08-26T02:06:57.549Z,4.27
2022-08-26T02:09:26.187Z,4.07
2022-08-26T02:11:53.764Z,3.90
2022-08-26T02:14:27.067Z,4.03
2022-08-26T02:16:54.113Z,4.40
2022-08-26T02:19:28.207Z,4.30
2022-08-26T02:21:55.265Z,3.67
2022-08-26T02:24:27.787Z,3.97
2022-08-26T02:26:55.472Z,4.10
2022-08-26T02:29:36.325Z,3.33
2022-08-26T02:32:07.628Z,3.60
2022-08-26T02:34:34.858Z,4.20
2022-08-26T02:37:06.362Z,4.17
2022-08-26T02:39:33.818Z,4.00
2022-08-26T02:42:00.456Z,3.97
2022-08-26T02:44:27.602Z,3.60
2022-08-26T02:46:54.801Z,4.13
2022-08-26T02:49:23.208Z,3.33
2022-08-26T02:51:49.980Z,3.60
2022-08-26T02:54:18.352Z,4.37
2022-08-26T02:56:45.488Z,3.67
2022-08-26T02:59:15.511Z,3.73
2022-08-26T03:01:42.774Z,4.10
2022-08-26T03:04:11.091Z,3.67
2022-08-26T03:06:38.967Z,3.57
2022-08-26T03:09:07.797Z,3.57
2022-08-26T03:11:35.739Z,3.70
2022-08-26T03:14:03.789Z,3.63
2022-08-26T03:16:35.223Z,3.70
2022-08-26T03:19:02.923Z,3.97
2022-08-26T03:21:29.679Z,3.80
2022-08-26T03:23:59.403Z,3.70
2022-08-26T03:26:28.002Z,3.93
2022-08-26T03:29:13.953Z,3.73
2022-08-26T03:31:40.763Z,3.60
2022-08-26T03:34:07.332Z,3.80
2022-08-26T03:36:35.051Z,4.40
2022-08-26T03:39:01.837Z,3.83
2022-08-26T03:41:28.926Z,3.57
2022-08-26T03:44:01.438Z,4.30
2022-08-26T03:46:28.752Z,4.17
2022-08-26T03:48:55.555Z,4.67
2022-08-26T03:51:22.178Z,4.07
2022-08-26T03:53:50.978Z,4.40
2022-08-26T03:56:17.977Z,4.83
2022-08-26T03:58:44.923Z,4.47
2022-08-26T04:01:13.261Z,5.17
2022-08-26T04:04:00.552Z,4.93
2022-08-26T04:06:39.181Z,5.00
2022-08-26T04:09:10.511Z,5.07
2022-08-26T04:11:39.522Z,4.93
2022-08-26T04:14:10.186Z,4.90
2022-08-26T04:16:37.085Z,4.97
2022-08-26T04:19:04.393Z,5.20
2022-08-26T04:21:31.351Z,5.20
2022-08-26T04:23:59.154Z,5.63
2022-08-26T04:26:37.021Z,5.67
2022-08-26T04:29:11.295Z,5.73
2022-08-26T04:31:38.492Z,5.03
2022-08-26T04:34:06.007Z,5.60
2022-08-26T04:36:32.792Z,5.17
2022-08-26T04:39:02.466Z,5.57
2022-08-26T04:41:29.764Z,5.60
2022-08-26T04:43:58.933Z,6.70
2022-08-26T04:46:25.953Z,5.33
2022-08-26T04:48:54.379Z,5.97
2022-08-26T04:51:27.351Z,5.30
2022-08-26T04:54:00.005Z,6.30
2022-08-26T04:56:29.643Z,5.47
2022-08-26T04:58:57.854Z,6.20
2022-08-26T05:01:25.073Z,5.90
2022-08-26T05:03:51.930Z,5.27
2022-08-26T05:06:19.608Z,6.30
2022-08-26T05:08:46.505Z,6.40
2022-08-26T05:11:13.638Z,6.83
2022-08-26T05:13:40.523Z,6.73
2022-08-26T05:16:11.519Z,6.93
2022-08-26T05:18:39.140Z,7.07
2022-08-26T05:21:07.004Z,7.50
2022-08-26T05:23:35.904Z,6.37
2022-08-26T05:26:04.970Z,7.30
2022-08-26T05:28:31.654Z,6.23
2022-08-26T05:30:59.024Z,6.33
2022-08-26T05:33:25.916Z,6.00
2022-08-26T05:35:52.589Z,5.53
2022-08-26T05:38:21.754Z,5.37
2022-08-26T05:40:52.683Z,6.37
2022-08-26T05:43:21.224Z,5.10
2022-08-26T05:45:50.067Z,5.20
2022-08-26T05:48:24.333Z,5.83
2022-08-26T05:50:54.222Z,5.80
2022-08-26T05:53:22.281Z,5.93
2022-08-26T05:55:52.627Z,5.37
2022-08-26T05:58:20.988Z,6.00
2022-08-26T06:00:58.867Z,5.67
2022-08-26T06:03:26.250Z,5.70
2022-08-26T06:05:53.167Z,5.67
2022-08-26T06:08:21.190Z,5.50
2022-08-26T06:10:53.906Z,5.10
2022-08-26T06:13:31.982Z,5.57
2022-08-26T06:16:05.131Z,5.60
2022-08-26T06:18:37.649Z,6.37
2022-08-26T06:21:26.938Z,5.50
2022-08-26T06:24:15.823Z,4.97
2022-08-26T06:26:50.510Z,5.60
2022-08-26T06:29:24.277Z,4.97
2022-08-26T06:31:52.284Z,5.37
2022-08-26T06:34:19.103Z,5.07
2022-08-26T06:36:47.373Z,4.90
2022-08-26T06:39:16.099Z,5.40
2022-08-26T06:41:44.975Z,5.83
2022-08-26T06:44:13.623Z,5.13
2022-08-26T06:46:40.818Z,5.27
2022-08-26T06:49:07.779Z,6.05
2022-08-26T06:51:36.702Z,5.18
2022-08-26T06:54:05.101Z,5.38
2022-08-26T06:56:40.659Z,5.18
2022-08-26T06:59:08.349Z,6.03
2022-08-26T07:01:38.978Z,6.03
2022-08-26T07:04:10.548Z,6.03
2022-08-26T07:06:40.491Z,5.82
2022-08-26T07:09:09.739Z,5.93
2022-08-26T07:11:38.349Z,5.70
2022-08-26T07:14:05.982Z,5.05
2022-08-26T07:16:33.293Z,5.78
2022-08-26T07:18:59.945Z,4.97
2022-08-26T07:21:30.219Z,6.57
2022-08-26T07:24:01.332Z,5.75
2022-08-26T07:26:30.123Z,5.32
2022-08-26T07:28:59.429Z,4.85
2022-08-26T07:31:29.468Z,5.30
2022-08-26T07:34:01.944Z,5.63
2022-08-26T07:36:30.409Z,5.43
2022-08-26T07:39:03.611Z,4.90
2022-08-26T07:44:01.746Z,4.95
2022-08-26T07:46:30.189Z,5.18
2022-08-26T07:48:59.002Z,5.28
2022-08-26T07:51:27.025Z,5.65
2022-08-26T07:53:55.344Z,5.25
2022-08-26T07:56:23.379Z,5.18
2022-08-26T07:58:54.572Z,4.70
2022-08-26T08:01:26.052Z,4.97
2022-08-26T08:03:54.128Z,5.25
2022-08-26T08:06:22.875Z,5.00
2022-08-26T08:08:54.701Z,5.07
2022-08-26T08:11:21.646Z,5.30
2022-08-26T08:13:49.917Z,4.72
2022-08-26T08:16:24.549Z,4.40
2022-08-26T08:18:51.366Z,5.55
2022-08-26T08:21:21.945Z,4.53
2022-08-26T08:23:52.116Z,4.83
2022-08-26T08:26:18.858Z,4.72
2022-08-26T08:28:47.830Z,4.68
2022-08-26T08:31:56.714Z,4.90
2022-08-26T08:34:19.218Z,4.50
2022-08-26T08:36:48.421Z,4.88
2022-08-26T08:39:15.133Z,5.30
2022-08-26T08:41:51.100Z,4.60
2022-08-26T08:44:30.868Z,5.65
2022-08-26T08:47:18.500Z,4.40
2022-08-26T08:49:47.333Z,4.43
2022-08-26T08:52:36.937Z,4.68
2022-08-26T08:55:06.132Z,4.65
2022-08-26T08:57:41.138Z,4.88
2022-08-26T09:00:18.014Z,4.65
2022-08-26T09:03:01.782Z,5.13
2022-08-26T09:05:35.105Z,4.85
2022-08-26T09:08:04.941Z,4.90
2022-08-26T09:10:37.311Z,5.55
2022-08-26T09:13:07.858Z,5.20
2022-08-26T09:16:03.061Z,5.20
2022-08-26T09:18:42.387Z,5.03
2022-08-26T09:21:14.961Z,5.40
2022-08-26T09:23:42.868Z,5.63
2022-08-26T09:26:20.304Z,5.05
2022-08-26T09:29:09.170Z,5.70
2022-08-26T09:31:37.312Z,4.83
2022-08-26T09:34:17.054Z,5.15
2022-08-26T09:36:49.621Z,5.00
2022-08-26T09:39:27.967Z,4.35
2022-08-26T09:42:28.318Z,5.25
2022-08-26T09:45:04.935Z,4.53
2022-08-26T09:47:48.059Z,5.10
2022-08-26T09:50:30.688Z,4.55
2022-08-26T09:53:20.897Z,5.60
2022-08-26T09:55:50.092Z,5.20
2022-08-26T09:58:37.834Z,4.95
2022-08-26T10:01:14.354Z,4.63
2022-08-26T10:03:42.659Z,4.57
2022-08-26T10:06:18.151Z,4.72
2022-08-26T10:09:00.071Z,4.40
2022-08-26T10:11:37.594Z,5.03
2022-08-26T10:14:16.460Z,5.32
2022-08-26T10:16:51.162Z,5.03
2022-08-26T10:19:25.545Z,4.97
2022-08-26T10:22:16.289Z,5.15
2022-08-26T10:24:51.958Z,4.72
2022-08-26T10:27:51.224Z,5.37
2022-08-26T10:30:22.322Z,4.97
2022-08-26T10:32:51.874Z,5.00
2022-08-26T10:35:19.482Z,4.57
2022-08-26T10:37:49.565Z,4.63
2022-08-26T10:40:38.457Z,4.78
2022-08-26T10:43:11.651Z,4.65
2022-08-26T10:45:50.687Z,3.95
2022-08-26T10:48:23.218Z,4.93
2022-08-26T10:50:50.043Z,4.40
2022-08-26T10:53:32.514Z,4.38
2022-08-26T10:56:18.814Z,4.68
2022-08-26T10:58:57.484Z,4.50
2022-08-26T11:01:42.843Z,5.03
2022-08-26T11:04:13.196Z,4.85
2022-08-26T11:06:39.951Z,4.57
2022-08-26T11:09:08.802Z,5.00
2022-08-26T11:11:41.340Z,4.38
2022-08-26T11:14:28.486Z,4.55
2022-08-26T11:17:00.231Z,5.10
2022-08-26T11:19:56.821Z,4.20
2022-08-26T11:22:47.592Z,4.53
2022-08-26T11:25:29.662Z,4.68
2022-08-26T11:27:59.863Z,5.38
2022-08-26T11:30:41.561Z,4.60
2022-08-26T11:33:09.318Z,4.75
2022-08-26T11:35:38.777Z,4.75
2022-08-26T11:38:23.156Z,4.25
2022-08-26T11:41:18.657Z,4.50
2022-08-26T11:43:49.476Z,4.70
2022-08-26T11:46:24.981Z,4.60
2022-08-26T11:49:05.516Z,4.45
2022-08-26T11:51:35.950Z,4.72
2022-08-26T11:54:15.002Z,5.00
2022-08-26T11:56:45.137Z,4.60
2022-08-26T11:59:16.643Z,5.15
2022-08-26T12:01:44.825Z,5.05
2022-08-26T12:04:18.109Z,5.15
2022-08-26T12:06:51.027Z,4.30
2022-08-26T12:09:27.780Z,4.65
2022-08-26T12:12:17.761Z,4.80
2022-08-26T12:14:44.965Z,4.63
2022-08-26T12:17:15.759Z,4.70
2022-08-26T12:19:42.707Z,4.68
2022-08-26T12:22:22.642Z,4.40
2022-08-26T12:25:00.765Z,4.85
2022-08-26T12:27:34.274Z,4.82
2022-08-26T12:30:06.897Z,5.25
2022-08-26T12:32:39.156Z,4.65
2022-08-26T12:35:23.973Z,4.85
2022-08-26T12:37:53.672Z,4.88
2022-08-26T12:40:30.992Z,4.55
2022-08-26T12:43:00.991Z,4.38
2022-08-26T12:45:36.517Z,4.35
2022-08-26T12:48:10.090Z,4.22
2022-08-26T12:50:39.260Z,4.20
2022-08-26T12:53:11.852Z,4.13
2022-08-26T12:55:50.793Z,4.00
2022-08-26T12:58:25.891Z,4.50
2022-08-26T13:00:59.198Z,4.15
2022-08-26T13:03:43.594Z,4.47
2022-08-26T13:06:29.844Z,4.18
2022-08-26T13:09:05.135Z,4.28
2022-08-26T13:11:40.610Z,4.38
2022-08-26T13:14:10.088Z,4.50
2022-08-26T13:16:38.118Z,4.63
2022-08-26T13:19:16.597Z,4.38
2022-08-26T13:21:54.008Z,4.00
2022-08-26T13:24:26.874Z,4.55
2022-08-26T13:26:53.890Z,5.18
2022-08-26T13:29:20.673Z,4.60
2022-08-26T13:31:48.064Z,4.50
2022-08-26T13:34:19.557Z,5.10
2022-08-26T13:36:51.267Z,4.72
2022-08-26T13:39:18.385Z,4.82
2022-08-26T13:41:45.016Z,5.00
2022-08-26T13:44:12.378Z,4.82
2022-08-26T13:46:39.627Z,5.25
2022-08-26T13:49:06.779Z,6.38
2022-08-26T13:51:33.975Z,5.22
2022-08-26T13:54:00.744Z,5.00
2022-08-26T13:56:29.826Z,5.20
2022-08-26T13:58:58.709Z,5.90
2022-08-26T14:01:26.443Z,5.07
2022-08-26T14:03:53.522Z,5.72
2022-08-26T14:06:23.010Z,5.38
2022-08-26T14:08:49.865Z,5.75
2022-08-26T14:11:17.540Z,5.82
2022-08-26T14:13:44.479Z,5.78
2022-08-26T14:16:14.179Z,5.50
2022-08-26T14:18:42.579Z,5.80
2022-08-26T14:21:13.021Z,5.28
2022-08-26T14:23:40.352Z,5.90
2022-08-26T14:26:21.208Z,6.32
2022-08-26T14:28:59.225Z,6.03
2022-08-26T14:31:27.115Z,6.03
2022-08-26T14:33:53.874Z,6.03
2022-08-26T14:36:31.501Z,5.85
2022-08-26T14:39:05.180Z,5.88
2022-08-26T14:41:32.563Z,5.80
2022-08-26T14:44:05.868Z,5.57
2022-08-26T14:46:36.674Z,5.90
2022-08-26T14:49:07.267Z,5.88
2022-08-26T14:51:36.751Z,6.20
2022-08-26T14:54:12.631Z,6.03
2022-08-26T14:56:48.913Z,6.15
2022-08-26T14:59:18.673Z,6.68
2022-08-26T15:01:45.511Z,5.78
2022-08-26T15:04:12.756Z,5.93
2022-08-26T15:06:39.656Z,5.90
2022-08-26T15:09:06.702Z,5.90
2022-08-26T15:11:33.299Z,6.10
2022-08-26T15:14:00.174Z,5.63
2022-08-26T15:16:28.388Z,5.10
2022-08-26T15:18:55.498Z,6.30
2022-08-26T15:21:23.155Z,5.75
2022-08-26T15:23:50.329Z,5.78
2022-08-26T15:26:17.361Z,5.72
2022-08-26T15:28:44.484Z,6.95
2022-08-26T15:31:11.230Z,6.30
2022-08-26T15:33:39.378Z,5.88
2022-08-26T15:36:07.254Z,5.93
2022-08-26T15:38:37.519Z,6.72
2022-08-26T15:41:06.576Z,5.95
2022-08-26T15:43:33.475Z,5.95
2022-08-26T15:46:00.120Z,6.45
2022-08-26T15:48:27.036Z,6.03
2022-08-26T15:50:57.536Z,5.63
2022-08-26T15:53:24.572Z,6.13
2022-08-26T15:55:53.891Z,6.03
2022-08-26T15:58:21.121Z,6.13
2022-08-26T16:00:48.182Z,6.53
2022-08-26T16:03:15.046Z,6.25
2022-08-26T16:05:43.630Z,5.70
2022-08-26T16:08:11.100Z,6.05
2022-08-26T16:10:40.669Z,5.43
2022-08-26T16:13:09.392Z,5.57
2022-08-26T16:15:38.518Z,5.80
2022-08-26T16:18:06.087Z,5.15
2022-08-26T16:20:34.873Z,5.78
2022-08-26T16:23:02.927Z,5.22
2022-08-26T16:25:30.206Z,6.28
2022-08-26T16:27:58.757Z,5.75
2022-08-26T16:30:25.891Z,5.60
2022-08-26T16:32:52.381Z,5.68
2022-08-26T16:35:19.048Z,5.53
2022-08-26T16:37:45.912Z,5.18
2022-08-26T16:40:12.680Z,5.43
2022-08-26T16:42:39.459Z,5.72
2022-08-26T16:45:06.616Z,5.63
2022-08-26T16:47:33.990Z,4.90
2022-08-26T16:50:00.818Z,5.20
2022-08-26T16:52:30.152Z,5.37
2022-08-26T16:54:59.089Z,4.38
2022-08-26T16:57:25.877Z,5.20
2022-08-26T16:59:52.413Z,4.80
2022-08-26T17:02:19.109Z,5.32
2022-08-26T17:04:47.162Z,5.57
2022-08-26T17:07:17.095Z,4.82
2022-08-26T17:09:43.691Z,5.00
2022-08-26T17:12:10.463Z,4.90
2022-08-26T17:14:37.549Z,4.70
2022-08-26T17:17:06.057Z,5.35
2022-08-26T17:19:40.947Z,4.75
2022-08-26T17:22:13.826Z,4.68
2022-08-26T17:24:40.933Z,5.20
2022-08-26T17:27:07.857Z,5.15
2022-08-26T17:29:34.589Z,5.38
2022-08-26T17:32:01.496Z,4.90
2022-08-26T17:34:27.988Z,5.47
2022-08-26T17:36:54.478Z,5.43
2022-08-26T17:39:22.411Z,5.18
2022-08-26T17:41:49.214Z,5.97
2022-08-26T17:44:16.191Z,4.78
2022-08-26T17:46:42.945Z,5.05
2022-08-26T17:49:10.105Z,5.22
2022-08-26T17:51:36.699Z,5.22
2022-08-26T17:54:03.944Z,5.00
2022-08-26T17:56:30.562Z,4.80
2022-08-26T17:59:02.543Z,5.30
2022-08-26T18:01:31.030Z,5.07
2022-08-26T18:04:00.605Z,7.15
2022-08-26T18:06:28.924Z,6.03
2022-08-26T18:08:55.596Z,11.07
2022-08-26T18:11:23.865Z,7.30
2022-08-26T18:13:50.866Z,19.70
2022-08-26T18:16:18.865Z,42.43
2022-08-26T18:18:46.968Z,29.30
2022-08-26T18:21:18.584Z,26.95
2022-08-26T18:23:46.404Z,16.42
2022-08-26T18:26:21.913Z,19.90
2022-08-26T18:28:48.889Z,14.50
2022-08-26T18:31:19.056Z,13.85
2022-08-26T18:33:45.741Z,12.30
2022-08-26T18:36:21.864Z,10.57
2022-08-26T18:38:50.398Z,9.30
2022-08-26T18:41:18.493Z,9.88
2022-08-26T18:43:45.317Z,8.18
2022-08-26T18:46:12.087Z,8.30
2022-08-26T18:48:40.114Z,7.05
2022-08-26T18:51:07.523Z,7.68
2022-08-26T18:53:39.027Z,6.72
2022-08-26T18:56:05.795Z,7.35
2022-08-26T18:58:32.423Z,6.30
2022-08-26T19:00:59.183Z,6.57
2022-08-26T19:03:28.603Z,6.00
2022-08-26T19:05:55.573Z,5.93
2022-08-26T19:08:22.113Z,5.68
2022-08-26T19:10:48.773Z,5.22
2022-08-26T19:13:16.577Z,5.30
2022-08-26T19:15:45.607Z,5.50
2022-08-26T19:18:17.798Z,5.37
2022-08-26T19:20:46.860Z,5.53
2022-08-26T19:23:30.816Z,5.50
2022-08-26T19:25:58.885Z,5.83
2022-08-26T19:28:25.472Z,5.57
2022-08-26T19:30:53.302Z,5.60
2022-08-26T19:33:20.077Z,5.73
2022-08-26T19:35:46.719Z,5.88
2022-08-26T19:38:14.017Z,6.20
2022-08-26T19:40:40.722Z,6.20
2022-08-26T19:43:07.458Z,5.95
2022-08-26T19:45:34.426Z,5.75
2022-08-26T19:48:01.528Z,5.67
2022-08-26T19:50:30.110Z,5.93
2022-08-26T19:52:57.248Z,5.70
2022-08-26T19:55:24.230Z,5.77
2022-08-26T19:57:52.375Z,5.70
2022-08-26T20:00:23.543Z,5.57
2022-08-26T20:02:50.640Z,5.50
2022-08-26T20:05:20.401Z,6.23
2022-08-26T20:07:47.814Z,5.35
2022-08-26T20:10:16.972Z,6.00
2022-08-26T20:12:43.847Z,5.30
2022-08-26T20:15:12.284Z,6.53
2022-08-26T20:17:39.819Z,5.90
2022-08-26T20:20:32.965Z,5.78
2022-08-26T20:23:01.381Z,6.00
2022-08-26T20:25:28.061Z,6.00
2022-08-26T20:27:54.861Z,6.20
2022-08-26T20:30:21.492Z,6.07
2022-08-26T20:32:48.828Z,6.00
2022-08-26T20:35:15.916Z,5.83
2022-08-26T20:37:42.855Z,6.27
2022-08-26T20:40:11.659Z,5.73
2022-08-26T20:42:38.376Z,6.10
2022-08-26T20:45:07.122Z,6.80
2022-08-26T20:47:33.813Z,6.97
2022-08-26T20:50:00.473Z,5.93
2022-08-26T20:52:27.699Z,6.03
2022-08-26T20:54:54.397Z,6.10
2022-08-26T20:57:22.329Z,6.13
2022-08-26T20:59:49.449Z,5.90
2022-08-26T21:02:16.542Z,5.93
2022-08-26T21:04:43.320Z,6.60
2022-08-26T21:07:10.190Z,6.07
2022-08-26T21:09:36.731Z,6.17
2022-08-26T21:12:05.069Z,5.83
2022-08-26T21:14:31.713Z,7.10
2022-08-26T21:16:59.524Z,6.73
2022-08-26T21:19:26.723Z,6.83
2022-08-26T21:21:53.544Z,6.50
2022-08-26T21:24:20.268Z,7.03
2022-08-26T21:26:46.929Z,7.40
2022-08-26T21:29:14.021Z,6.77
2022-08-26T21:31:45.645Z,6.60
2022-08-26T21:34:13.945Z,6.63
2022-08-26T21:36:40.618Z,6.80
2022-08-26T21:39:11.483Z,6.20
2022-08-26T21:41:39.092Z,6.93
2022-08-26T21:44:05.825Z,6.37
2022-08-26T21:46:34.943Z,7.20
2022-08-26T21:49:04.245Z,6.60
2022-08-26T21:51:34.004Z,6.53
2022-08-26T21:54:03.681Z,5.90
2022-08-26T21:56:33.269Z,6.67
2022-08-26T21:59:00.357Z,7.03
2022-08-26T22:01:31.930Z,6.50
2022-08-26T22:03:58.973Z,7.00
2022-08-26T22:06:27.738Z,7.07
2022-08-26T22:08:55.919Z,7.47
2022-08-26T22:11:24.514Z,6.83
2022-08-26T22:13:52.193Z,7.00
2022-08-26T22:16:19.329Z,7.30
2022-08-26T22:18:46.647Z,6.93
2022-08-26T22:21:19.100Z,6.73
2022-08-26T22:23:46.058Z,6.97
2022-08-26T22:26:15.296Z,7.40
2022-08-26T22:28:58.869Z,6.93
2022-08-26T22:31:37.245Z,7.50
2022-08-26T22:34:07.658Z,7.20
2022-08-26T22:36:34.434Z,8.00
2022-08-26T22:39:01.249Z,6.87
2022-08-26T22:41:27.956Z,7.77
2022-08-26T22:43:54.529Z,7.68
2022-08-26T22:46:26.196Z,7.83
2022-08-26T22:48:54.206Z,7.37
2022-08-26T22:51:21.877Z,7.23
2022-08-26T22:53:48.620Z,7.30
2022-08-26T22:56:15.743Z,7.13
2022-08-26T22:58:42.520Z,6.80
2022-08-26T23:01:09.381Z,7.80
2022-08-26T23:03:36.478Z,7.23
2022-08-26T23:06:06.934Z,7.13
2022-08-26T23:08:33.589Z,7.03
2022-08-26T23:11:00.405Z,7.43
2022-08-26T23:13:27.879Z,7.80
2022-08-26T23:16:06.874Z,7.50
2022-08-26T23:18:33.530Z,7.30
2022-08-26T23:21:00.855Z,7.50
2022-08-26T23:23:27.774Z,7.20
2022-08-26T23:25:57.723Z,8.67
2022-08-26T23:28:24.347Z,7.73
2022-08-26T23:30:51.261Z,7.03
2022-08-26T23:33:17.810Z,7.13
2022-08-26T23:35:44.577Z,7.77
2022-08-26T23:38:14.284Z,8.13
2022-08-26T23:40:41.357Z,7.30
2022-08-26T23:43:11.287Z,7.50
2022-08-26T23:45:38.108Z,7.23
2022-08-26T23:48:05.093Z,7.50
2022-08-26T23:50:50.733Z,7.07
2022-08-26T23:53:20.544Z,6.93
2022-08-26T23:55:49.533Z,7.03
2022-08-26T23:58:18.121Z,7.00
